sensor_id;sensor_type;location;lat;lon;timestamp;P1;durP1;ratioP1;P2;durP2;ratioP2
69981;SDS011;57319;56.274;43.980;2024-03-23T00:55:45;12.77;;;4.25;;
69981;SDS011;57319;56.274;43.980;2024-03-23T00:58:10;8.75;;;4.65;;
69981;SDS011;57319;56.274;43.980;2024-03-23T01:00:36;9.93;;;4.20;;
69981;SDS011;57319;56.274;43.980;2024-03-23T01:03:02;7.75;;;4.00;;
69981;SDS011;57319;56.274;43.980;2024-03-23T01:05:28;6.57;;;4.55;;
69981;SDS011;57319;56.274;43.980;2024-03-23T01:07:53;15.73;;;4.72;;
69981;SDS011;57319;56.274;43.980;2024-03-23T01:10:19;11.55;;;4.80;;
69981;SDS011;57319;56.274;43.980;2024-03-23T01:12:45;6.88;;;4.40;;
69981;SDS011;57319;56.274;43.980;2024-03-23T01:15:11;17.20;;;5.05;;
69981;SDS011;57319;56.274;43.980;2024-03-23T01:17:37;7.93;;;4.82;;
69981;SDS011;57319;56.274;43.980;2024-03-23T01:20:03;8.23;;;5.20;;
69981;SDS011;57319;56.274;43.980;2024-03-23T01:22:30;7.15;;;4.63;;
69981;SDS011;57319;56.274;43.980;2024-03-23T01:24:55;7.07;;;4.55;;
69981;SDS011;57319;56.274;43.980;2024-03-23T01:27:21;15.35;;;4.68;;
69981;SDS011;57319;56.274;43.980;2024-03-23T01:29:47;10.30;;;4.93;;
69981;SDS011;57319;56.274;43.980;2024-03-23T01:32:13;8.45;;;5.20;;
69981;SDS011;57319;56.274;43.980;2024-03-23T01:34:39;10.45;;;4.85;;
69981;SDS011;57319;56.274;43.980;2024-03-23T01:37:05;8.55;;;4.53;;
69981;SDS011;57319;56.274;43.980;2024-03-23T01:39:30;7.03;;;4.47;;
69981;SDS011;57319;56.274;43.980;2024-03-23T01:41:56;14.65;;;5.10;;
69981;SDS011;57319;56.274;43.980;2024-03-23T01:44:22;9.82;;;5.03;;
69981;SDS011;57319;56.274;43.980;2024-03-23T01:46:48;5.97;;;4.28;;
69981;SDS011;57319;56.274;43.980;2024-03-23T01:49:14;10.60;;;4.95;;
69981;SDS011;57319;56.274;43.980;2024-03-23T01:51:40;11.73;;;4.97;;
69981;SDS011;57319;56.274;43.980;2024-03-23T01:54:06;10.15;;;4.95;;
69981;SDS011;57319;56.274;43.980;2024-03-23T01:56:33;9.23;;;5.13;;
69981;SDS011;57319;56.274;43.980;2024-03-23T01:59:02;8.20;;;5.43;;
69981;SDS011;57319;56.274;43.980;2024-03-23T02:01:29;9.32;;;5.55;;
69981;SDS011;57319;56.274;43.980;2024-03-23T02:03:55;12.40;;;5.88;;
69981;SDS011;57319;56.274;43.980;2024-03-23T02:06:20;9.70;;;5.40;;
69981;SDS011;57319;56.274;43.980;2024-03-23T02:08:47;10.30;;;5.55;;
69981;SDS011;57319;56.274;43.980;2024-03-23T02:11:13;12.10;;;5.43;;
69981;SDS011;57319;56.274;43.980;2024-03-23T02:13:39;11.65;;;5.45;;
69981;SDS011;57319;56.274;43.980;2024-03-23T02:16:05;11.00;;;4.78;;
69981;SDS011;57319;56.274;43.980;2024-03-23T02:18:34;10.93;;;5.38;;
69981;SDS011;57319;56.274;43.980;2024-03-23T02:21:00;15.48;;;5.85;;
69981;SDS011;57319;56.274;43.980;2024-03-23T02:23:26;11.75;;;4.93;;
69981;SDS011;57319;56.274;43.980;2024-03-23T02:25:52;14.50;;;6.47;;
69981;SDS011;57319;56.274;43.980;2024-03-23T02:28:21;11.40;;;5.70;;
69981;SDS011;57319;56.274;43.980;2024-03-23T02:30:48;16.02;;;5.90;;
69981;SDS011;57319;56.274;43.980;2024-03-23T02:33:14;12.15;;;6.05;;
69981;SDS011;57319;56.274;43.980;2024-03-23T02:35:40;9.13;;;5.63;;
69981;SDS011;57319;56.274;43.980;2024-03-23T02:38:06;11.90;;;6.45;;
69981;SDS011;57319;56.274;43.980;2024-03-23T02:40:31;16.70;;;6.13;;
69981;SDS011;57319;56.274;43.980;2024-03-23T02:42:57;18.42;;;6.88;;
69981;SDS011;57319;56.274;43.980;2024-03-23T02:45:23;14.82;;;6.45;;
69981;SDS011;57319;56.274;43.980;2024-03-23T02:47:49;13.65;;;5.88;;
69981;SDS011;57319;56.274;43.980;2024-03-23T02:50:18;14.57;;;6.05;;
69981;SDS011;57319;56.274;43.980;2024-03-23T02:52:44;11.48;;;6.40;;
69981;SDS011;57319;56.274;43.980;2024-03-23T02:55:10;17.08;;;5.95;;
69981;SDS011;57319;56.274;43.980;2024-03-23T02:57:36;14.88;;;6.47;;
69981;SDS011;57319;56.274;43.980;2024-03-23T03:00:02;18.05;;;6.80;;
69981;SDS011;57319;56.274;43.980;2024-03-23T03:02:30;15.20;;;8.00;;
69981;SDS011;57319;56.274;43.980;2024-03-23T03:04:56;11.88;;;6.93;;
69981;SDS011;57319;56.274;43.980;2024-03-23T03:07:21;16.08;;;6.93;;
69981;SDS011;57319;56.274;43.980;2024-03-23T03:09:47;10.13;;;6.32;;
69981;SDS011;57319;56.274;43.980;2024-03-23T03:12:13;14.73;;;7.63;;
69981;SDS011;57319;56.274;43.980;2024-03-23T03:14:39;13.20;;;6.80;;
69981;SDS011;57319;56.274;43.980;2024-03-23T03:17:05;14.57;;;7.10;;
69981;SDS011;57319;56.274;43.980;2024-03-23T03:19:31;16.58;;;7.45;;
69981;SDS011;57319;56.274;43.980;2024-03-23T03:21:57;14.00;;;7.38;;
69981;SDS011;57319;56.274;43.980;2024-03-23T03:24:23;16.20;;;7.97;;
69981;SDS011;57319;56.274;43.980;2024-03-23T03:26:49;23.17;;;8.30;;
69981;SDS011;57319;56.274;43.980;2024-03-23T03:29:15;24.77;;;8.27;;
69981;SDS011;57319;56.274;43.980;2024-03-23T03:31:44;15.85;;;8.60;;
69981;SDS011;57319;56.274;43.980;2024-03-23T03:34:10;18.80;;;8.50;;
69981;SDS011;57319;56.274;43.980;2024-03-23T03:36:36;14.45;;;7.93;;
69981;SDS011;57319;56.274;43.980;2024-03-23T03:39:01;17.40;;;8.95;;
69981;SDS011;57319;56.274;43.980;2024-03-23T03:41:31;20.60;;;9.10;;
69981;SDS011;57319;56.274;43.980;2024-03-23T03:43:56;18.05;;;8.60;;
69981;SDS011;57319;56.274;43.980;2024-03-23T03:46:26;19.27;;;9.57;;
69981;SDS011;57319;56.274;43.980;2024-03-23T03:48:52;26.45;;;9.60;;
69981;SDS011;57319;56.274;43.980;2024-03-23T03:51:19;21.60;;;9.18;;
69981;SDS011;57319;56.274;43.980;2024-03-23T03:53:46;20.50;;;9.52;;
69981;SDS011;57319;56.274;43.980;2024-03-23T03:56:11;13.15;;;8.38;;
69981;SDS011;57319;56.274;43.980;2024-03-23T03:58:37;28.10;;;9.80;;
69981;SDS011;57319;56.274;43.980;2024-03-23T04:01:03;19.75;;;9.65;;
69981;SDS011;57319;56.274;43.980;2024-03-23T04:03:29;23.50;;;9.85;;
69981;SDS011;57319;56.274;43.980;2024-03-23T04:05:54;23.83;;;9.50;;
69981;SDS011;57319;56.274;43.980;2024-03-23T04:08:21;29.88;;;11.57;;
69981;SDS011;57319;56.274;43.980;2024-03-23T04:10:47;21.40;;;9.38;;
69981;SDS011;57319;56.274;43.980;2024-03-23T04:13:13;22.55;;;9.02;;
69981;SDS011;57319;56.274;43.980;2024-03-23T04:15:39;19.00;;;9.63;;
69981;SDS011;57319;56.274;43.980;2024-03-23T04:18:05;14.18;;;9.18;;
69981;SDS011;57319;56.274;43.980;2024-03-23T04:20:31;16.55;;;9.45;;
69981;SDS011;57319;56.274;43.980;2024-03-23T04:22:58;20.58;;;9.80;;
69981;SDS011;57319;56.274;43.980;2024-03-23T04:25:24;26.33;;;10.57;;
69981;SDS011;57319;56.274;43.980;2024-03-23T04:27:49;21.60;;;9.57;;
69981;SDS011;57319;56.274;43.980;2024-03-23T04:30:15;24.13;;;10.63;;
69981;SDS011;57319;56.274;43.980;2024-03-23T04:32:41;31.52;;;10.60;;
69981;SDS011;57319;56.274;43.980;2024-03-23T04:35:07;17.50;;;9.13;;
69981;SDS011;57319;56.274;43.980;2024-03-23T04:37:37;19.17;;;9.77;;
69981;SDS011;57319;56.274;43.980;2024-03-23T04:40:09;28.70;;;9.75;;
69981;SDS011;57319;56.274;43.980;2024-03-23T04:42:36;23.10;;;10.23;;
69981;SDS011;57319;56.274;43.980;2024-03-23T04:45:03;26.50;;;9.95;;
69981;SDS011;57319;56.274;43.980;2024-03-23T04:47:31;27.48;;;9.32;;
69981;SDS011;57319;56.274;43.980;2024-03-23T04:49:57;25.00;;;10.30;;
69981;SDS011;57319;56.274;43.980;2024-03-23T04:52:23;25.73;;;11.55;;
69981;SDS011;57319;56.274;43.980;2024-03-23T04:54:49;28.77;;;9.77;;
69981;SDS011;57319;56.274;43.980;2024-03-23T04:57:14;25.50;;;9.95;;
69981;SDS011;57319;56.274;43.980;2024-03-23T04:59:42;17.65;;;9.15;;
69981;SDS011;57319;56.274;43.980;2024-03-23T05:02:07;25.23;;;10.93;;
69981;SDS011;57319;56.274;43.980;2024-03-23T05:04:33;23.15;;;10.60;;
69981;SDS011;57319;56.274;43.980;2024-03-23T05:06:59;27.85;;;10.77;;
69981;SDS011;57319;56.274;43.980;2024-03-23T05:09:25;27.02;;;11.65;;
69981;SDS011;57319;56.274;43.980;2024-03-23T05:11:55;24.45;;;10.77;;
69981;SDS011;57319;56.274;43.980;2024-03-23T05:14:22;27.80;;;11.00;;
69981;SDS011;57319;56.274;43.980;2024-03-23T05:16:47;28.90;;;11.70;;
69981;SDS011;57319;56.274;43.980;2024-03-23T05:19:13;21.98;;;11.32;;
69981;SDS011;57319;56.274;43.980;2024-03-23T05:21:39;26.70;;;10.77;;
69981;SDS011;57319;56.274;43.980;2024-03-23T05:24:05;32.05;;;12.25;;
69981;SDS011;57319;56.274;43.980;2024-03-23T05:26:31;22.35;;;10.88;;
69981;SDS011;57319;56.274;43.980;2024-03-23T05:28:56;33.60;;;12.15;;
69981;SDS011;57319;56.274;43.980;2024-03-23T05:31:23;23.60;;;11.43;;
69981;SDS011;57319;56.274;43.980;2024-03-23T05:33:52;26.75;;;10.70;;
69981;SDS011;57319;56.274;43.980;2024-03-23T05:36:18;30.52;;;12.77;;
69981;SDS011;57319;56.274;43.980;2024-03-23T05:38:44;31.85;;;9.77;;
69981;SDS011;57319;56.274;43.980;2024-03-23T05:41:10;28.27;;;10.75;;
69981;SDS011;57319;56.274;43.980;2024-03-23T05:43:36;26.33;;;12.15;;
69981;SDS011;57319;56.274;43.980;2024-03-23T05:46:02;30.92;;;11.95;;
69981;SDS011;57319;56.274;43.980;2024-03-23T05:48:29;26.67;;;10.95;;
69981;SDS011;57319;56.274;43.980;2024-03-23T05:50:56;26.20;;;11.85;;
69981;SDS011;57319;56.274;43.980;2024-03-23T05:53:22;30.58;;;12.10;;
69981;SDS011;57319;56.274;43.980;2024-03-23T05:55:49;18.92;;;10.55;;
69981;SDS011;57319;56.274;43.980;2024-03-23T05:58:16;27.67;;;12.15;;
69981;SDS011;57319;56.274;43.980;2024-03-23T06:00:44;29.80;;;11.68;;
69981;SDS011;57319;56.274;43.980;2024-03-23T06:03:10;31.23;;;11.68;;
69981;SDS011;57319;56.274;43.980;2024-03-23T06:05:39;39.80;;;11.80;;
69981;SDS011;57319;56.274;43.980;2024-03-23T06:08:06;28.38;;;11.57;;
69981;SDS011;57319;56.274;43.980;2024-03-23T06:10:34;32.15;;;10.00;;
69981;SDS011;57319;56.274;43.980;2024-03-23T06:13:00;24.98;;;10.57;;
69981;SDS011;57319;56.274;43.980;2024-03-23T06:15:26;22.80;;;10.52;;
69981;SDS011;57319;56.274;43.980;2024-03-23T06:17:52;32.55;;;11.23;;
69981;SDS011;57319;56.274;43.980;2024-03-23T06:20:18;35.67;;;13.77;;
69981;SDS011;57319;56.274;43.980;2024-03-23T06:22:44;20.88;;;10.00;;
69981;SDS011;57319;56.274;43.980;2024-03-23T06:25:09;19.23;;;10.38;;
69981;SDS011;57319;56.274;43.980;2024-03-23T06:27:37;27.50;;;11.30;;
69981;SDS011;57319;56.274;43.980;2024-03-23T06:30:04;28.42;;;10.48;;
69981;SDS011;57319;56.274;43.980;2024-03-23T06:32:31;31.92;;;12.27;;
69981;SDS011;57319;56.274;43.980;2024-03-23T06:34:56;30.92;;;11.18;;
69981;SDS011;57319;56.274;43.980;2024-03-23T06:37:22;29.95;;;11.55;;
69981;SDS011;57319;56.274;43.980;2024-03-23T06:39:48;33.30;;;12.35;;
69981;SDS011;57319;56.274;43.980;2024-03-23T06:42:14;23.48;;;11.55;;
69981;SDS011;57319;56.274;43.980;2024-03-23T06:44:39;28.30;;;11.25;;
69981;SDS011;57319;56.274;43.980;2024-03-23T06:47:05;30.15;;;11.57;;
69981;SDS011;57319;56.274;43.980;2024-03-23T06:49:31;22.27;;;10.70;;
69981;SDS011;57319;56.274;43.980;2024-03-23T06:51:57;24.13;;;11.88;;
69981;SDS011;57319;56.274;43.980;2024-03-23T06:54:24;33.90;;;12.02;;
69981;SDS011;57319;56.274;43.980;2024-03-23T06:56:50;21.52;;;11.15;;
69981;SDS011;57319;56.274;43.980;2024-03-23T06:59:16;30.95;;;11.88;;
69981;SDS011;57319;56.274;43.980;2024-03-23T07:01:41;36.63;;;11.50;;
69981;SDS011;57319;56.274;43.980;2024-03-23T07:04:07;28.20;;;11.48;;
69981;SDS011;57319;56.274;43.980;2024-03-23T07:06:33;33.00;;;10.70;;
69981;SDS011;57319;56.274;43.980;2024-03-23T07:08:59;26.40;;;10.60;;
69981;SDS011;57319;56.274;43.980;2024-03-23T07:11:25;20.27;;;11.30;;
69981;SDS011;57319;56.274;43.980;2024-03-23T07:13:51;27.55;;;11.80;;
69981;SDS011;57319;56.274;43.980;2024-03-23T07:16:17;18.63;;;10.82;;
69981;SDS011;57319;56.274;43.980;2024-03-23T07:18:43;27.85;;;10.73;;
69981;SDS011;57319;56.274;43.980;2024-03-23T07:21:09;24.40;;;11.02;;
69981;SDS011;57319;56.274;43.980;2024-03-23T07:23:35;25.92;;;11.50;;
69981;SDS011;57319;56.274;43.980;2024-03-23T07:26:04;23.42;;;7.18;;
69981;SDS011;57319;56.274;43.980;2024-03-23T07:28:31;22.02;;;10.75;;
69981;SDS011;57319;56.274;43.980;2024-03-23T07:31:07;21.85;;;10.38;;
69981;SDS011;57319;56.274;43.980;2024-03-23T07:33:35;33.92;;;10.52;;
69981;SDS011;57319;56.274;43.980;2024-03-23T07:36:01;22.05;;;9.98;;
69981;SDS011;57319;56.274;43.980;2024-03-23T07:38:28;20.67;;;9.38;;
69981;SDS011;57319;56.274;43.980;2024-03-23T07:43:30;28.08;;;10.25;;
69981;SDS011;57319;56.274;43.980;2024-03-23T07:45:56;23.98;;;10.35;;
69981;SDS011;57319;56.274;43.980;2024-03-23T07:48:22;32.15;;;10.23;;
69981;SDS011;57319;56.274;43.980;2024-03-23T07:51:01;24.98;;;9.45;;
69981;SDS011;57319;56.274;43.980;2024-03-23T07:53:29;28.35;;;9.82;;
69981;SDS011;57319;56.274;43.980;2024-03-23T07:55:57;22.15;;;9.80;;
69981;SDS011;57319;56.274;43.980;2024-03-23T07:58:25;20.70;;;9.85;;
69981;SDS011;57319;56.274;43.980;2024-03-23T08:00:52;27.50;;;9.40;;
69981;SDS011;57319;56.274;43.980;2024-03-23T08:03:18;29.73;;;9.05;;
69981;SDS011;57319;56.274;43.980;2024-03-23T08:05:45;17.40;;;10.05;;
69981;SDS011;57319;56.274;43.980;2024-03-23T08:08:11;20.52;;;10.00;;
69981;SDS011;57319;56.274;43.980;2024-03-23T08:10:37;33.28;;;9.80;;
69981;SDS011;57319;56.274;43.980;2024-03-23T08:13:12;23.85;;;9.75;;
69981;SDS011;57319;56.274;43.980;2024-03-23T08:15:37;23.30;;;10.00;;
69981;SDS011;57319;56.274;43.980;2024-03-23T08:18:03;24.25;;;9.50;;
69981;SDS011;57319;56.274;43.980;2024-03-23T08:20:30;21.10;;;9.55;;
69981;SDS011;57319;56.274;43.980;2024-03-23T08:22:55;19.80;;;9.15;;
69981;SDS011;57319;56.274;43.980;2024-03-23T08:25:21;21.92;;;10.15;;
69981;SDS011;57319;56.274;43.980;2024-03-23T08:27:47;22.30;;;9.57;;
69981;SDS011;57319;56.274;43.980;2024-03-23T08:30:12;19.35;;;9.40;;
69981;SDS011;57319;56.274;43.980;2024-03-23T08:32:38;17.50;;;9.43;;
69981;SDS011;57319;56.274;43.980;2024-03-23T08:35:04;23.95;;;9.93;;
69981;SDS011;57319;56.274;43.980;2024-03-23T08:37:30;25.13;;;10.13;;
69981;SDS011;57319;56.274;43.980;2024-03-23T08:39:56;22.42;;;9.80;;
69981;SDS011;57319;56.274;43.980;2024-03-23T08:42:22;27.92;;;9.27;;
69981;SDS011;57319;56.274;43.980;2024-03-23T08:44:47;17.02;;;7.72;;
69981;SDS011;57319;56.274;43.980;2024-03-23T08:47:16;21.42;;;9.68;;
69981;SDS011;57319;56.274;43.980;2024-03-23T08:49:42;26.00;;;9.77;;
69981;SDS011;57319;56.274;43.980;2024-03-23T08:52:09;24.67;;;9.52;;
69981;SDS011;57319;56.274;43.980;2024-03-23T08:54:35;19.58;;;9.20;;
69981;SDS011;57319;56.274;43.980;2024-03-23T08:57:00;21.75;;;9.80;;
69981;SDS011;57319;56.274;43.980;2024-03-23T08:59:26;23.77;;;10.30;;
69981;SDS011;57319;56.274;43.980;2024-03-23T09:01:52;25.70;;;9.90;;
69981;SDS011;57319;56.274;43.980;2024-03-23T09:04:18;20.65;;;9.25;;
69981;SDS011;57319;56.274;43.980;2024-03-23T09:06:44;17.50;;;9.15;;
69981;SDS011;57319;56.274;43.980;2024-03-23T09:09:10;26.52;;;10.32;;
69981;SDS011;57319;56.274;43.980;2024-03-23T09:11:35;17.27;;;9.95;;
69981;SDS011;57319;56.274;43.980;2024-03-23T09:14:02;18.50;;;8.73;;
69981;SDS011;57319;56.274;43.980;2024-03-23T09:16:28;24.90;;;9.93;;
69981;SDS011;57319;56.274;43.980;2024-03-23T09:18:55;14.38;;;8.20;;
69981;SDS011;57319;56.274;43.980;2024-03-23T09:21:21;25.45;;;9.98;;
69981;SDS011;57319;56.274;43.980;2024-03-23T09:23:47;25.00;;;9.82;;
69981;SDS011;57319;56.274;43.980;2024-03-23T09:26:13;24.05;;;9.25;;
69981;SDS011;57319;56.274;43.980;2024-03-23T09:28:40;21.15;;;9.50;;
69981;SDS011;57319;56.274;43.980;2024-03-23T09:31:07;26.45;;;8.75;;
69981;SDS011;57319;56.274;43.980;2024-03-23T09:33:33;21.38;;;8.77;;
69981;SDS011;57319;56.274;43.980;2024-03-23T09:36:06;14.00;;;6.78;;
69981;SDS011;57319;56.274;43.980;2024-03-23T09:38:32;21.83;;;9.25;;
69981;SDS011;57319;56.274;43.980;2024-03-23T09:40:58;26.95;;;9.05;;
69981;SDS011;57319;56.274;43.980;2024-03-23T09:43:25;21.23;;;8.48;;
69981;SDS011;57319;56.274;43.980;2024-03-23T09:45:51;17.35;;;7.72;;
69981;SDS011;57319;56.274;43.980;2024-03-23T09:48:18;28.25;;;8.95;;
69981;SDS011;57319;56.274;43.980;2024-03-23T09:50:44;21.85;;;8.88;;
69981;SDS011;57319;56.274;43.980;2024-03-23T09:53:12;18.33;;;8.57;;
69981;SDS011;57319;56.274;43.980;2024-03-23T09:55:43;22.27;;;7.97;;
69981;SDS011;57319;56.274;43.980;2024-03-23T09:58:13;13.15;;;6.35;;
69981;SDS011;57319;56.274;43.980;2024-03-23T10:00:40;20.45;;;8.82;;
69981;SDS011;57319;56.274;43.980;2024-03-23T10:03:06;14.57;;;8.57;;
69981;SDS011;57319;56.274;43.980;2024-03-23T10:05:32;21.50;;;9.13;;
69981;SDS011;57319;56.274;43.980;2024-03-23T10:10:40;27.52;;;9.85;;
69981;SDS011;57319;56.274;43.980;2024-03-23T10:13:06;21.88;;;9.05;;
69981;SDS011;57319;56.274;43.980;2024-03-23T10:15:33;20.52;;;8.80;;
69981;SDS011;57319;56.274;43.980;2024-03-23T10:18:17;19.27;;;9.25;;
69981;SDS011;57319;56.274;43.980;2024-03-23T10:20:47;14.50;;;9.33;;
69981;SDS011;57319;56.274;43.980;2024-03-23T10:23:17;21.52;;;9.10;;
69981;SDS011;57319;56.274;43.980;2024-03-23T10:25:42;17.45;;;8.90;;
69981;SDS011;57319;56.274;43.980;2024-03-23T10:28:09;14.25;;;9.00;;
69981;SDS011;57319;56.274;43.980;2024-03-23T10:30:36;15.35;;;7.68;;
69981;SDS011;57319;56.274;43.980;2024-03-23T10:33:11;20.30;;;9.60;;
69981;SDS011;57319;56.274;43.980;2024-03-23T10:35:38;20.10;;;9.93;;
69981;SDS011;57319;56.274;43.980;2024-03-23T10:38:05;19.52;;;9.73;;
69981;SDS011;57319;56.274;43.980;2024-03-23T10:40:35;15.82;;;9.13;;
69981;SDS011;57319;56.274;43.980;2024-03-23T10:43:02;19.95;;;9.32;;
69981;SDS011;57319;56.274;43.980;2024-03-23T10:45:29;23.23;;;9.38;;
69981;SDS011;57319;56.274;43.980;2024-03-23T10:47:55;17.58;;;8.85;;
69981;SDS011;57319;56.274;43.980;2024-03-23T10:50:22;21.98;;;9.30;;
69981;SDS011;57319;56.274;43.980;2024-03-23T10:52:48;15.70;;;9.23;;
69981;SDS011;57319;56.274;43.980;2024-03-23T10:55:18;23.67;;;9.15;;
69981;SDS011;57319;56.274;43.980;2024-03-23T10:57:49;18.45;;;8.68;;
69981;SDS011;57319;56.274;43.980;2024-03-23T11:00:18;19.13;;;9.23;;
69981;SDS011;57319;56.274;43.980;2024-03-23T11:02:47;21.63;;;9.57;;
69981;SDS011;57319;56.274;43.980;2024-03-23T11:07:52;18.65;;;8.88;;
69981;SDS011;57319;56.274;43.980;2024-03-23T11:10:28;20.77;;;9.50;;
69981;SDS011;57319;56.274;43.980;2024-03-23T11:12:56;20.88;;;9.82;;
69981;SDS011;57319;56.274;43.980;2024-03-23T11:15:23;19.80;;;9.68;;
69981;SDS011;57319;56.274;43.980;2024-03-23T11:18:04;21.83;;;9.35;;
69981;SDS011;57319;56.274;43.980;2024-03-23T11:20:33;12.88;;;7.75;;
69981;SDS011;57319;56.274;43.980;2024-03-23T11:23:00;21.65;;;8.82;;
69981;SDS011;57319;56.274;43.980;2024-03-23T11:25:27;28.00;;;9.43;;
69981;SDS011;57319;56.274;43.980;2024-03-23T11:27:58;22.52;;;9.07;;
69981;SDS011;57319;56.274;43.980;2024-03-23T11:30:35;22.15;;;9.13;;
69981;SDS011;57319;56.274;43.980;2024-03-23T11:33:03;16.23;;;8.73;;
69981;SDS011;57319;56.274;43.980;2024-03-23T11:35:30;15.85;;;8.20;;
69981;SDS011;57319;56.274;43.980;2024-03-23T11:38:09;21.85;;;9.13;;
69981;SDS011;57319;56.274;43.980;2024-03-23T11:43:07;13.65;;;8.25;;
69981;SDS011;57319;56.274;43.980;2024-03-23T11:45:37;16.50;;;9.35;;
69981;SDS011;57319;56.274;43.980;2024-03-23T11:48:06;14.48;;;8.95;;
69981;SDS011;57319;56.274;43.980;2024-03-23T11:50:36;20.83;;;9.57;;
69981;SDS011;57319;56.274;43.980;2024-03-23T11:53:19;14.90;;;7.90;;
69981;SDS011;57319;56.274;43.980;2024-03-23T11:55:49;16.80;;;8.05;;
69981;SDS011;57319;56.274;43.980;2024-03-23T11:58:16;14.82;;;9.75;;
69981;SDS011;57319;56.274;43.980;2024-03-23T12:03:24;22.98;;;10.05;;
69981;SDS011;57319;56.274;43.980;2024-03-23T12:05:54;16.58;;;9.63;;
69981;SDS011;57319;56.274;43.980;2024-03-23T12:11:06;18.30;;;10.25;;
69981;SDS011;57319;56.274;43.980;2024-03-23T12:13:45;15.27;;;9.57;;
69981;SDS011;57319;56.274;43.980;2024-03-23T12:16:16;17.60;;;10.57;;
69981;SDS011;57319;56.274;43.980;2024-03-23T12:18:43;26.70;;;10.48;;
69981;SDS011;57319;56.274;43.980;2024-03-23T12:21:10;17.25;;;10.30;;
69981;SDS011;57319;56.274;43.980;2024-03-23T12:23:38;19.05;;;10.82;;
69981;SDS011;57319;56.274;43.980;2024-03-23T12:26:05;13.75;;;9.73;;
69981;SDS011;57319;56.274;43.980;2024-03-23T12:28:31;17.73;;;10.55;;
69981;SDS011;57319;56.274;43.980;2024-03-23T12:30:57;18.73;;;9.43;;
69981;SDS011;57319;56.274;43.980;2024-03-23T12:33:23;16.52;;;10.98;;
69981;SDS011;57319;56.274;43.980;2024-03-23T12:35:52;19.52;;;11.07;;
69981;SDS011;57319;56.274;43.980;2024-03-23T12:38:19;19.77;;;11.68;;
69981;SDS011;57319;56.274;43.980;2024-03-23T12:40:48;20.75;;;11.38;;
69981;SDS011;57319;56.274;43.980;2024-03-23T12:43:14;27.98;;;11.88;;
69981;SDS011;57319;56.274;43.980;2024-03-23T12:45:41;22.88;;;13.43;;
69981;SDS011;57319;56.274;43.980;2024-03-23T12:48:11;23.10;;;12.82;;
69981;SDS011;57319;56.274;43.980;2024-03-23T12:50:36;18.98;;;12.73;;
69981;SDS011;57319;56.274;43.980;2024-03-23T12:53:03;25.48;;;11.93;;
69981;SDS011;57319;56.274;43.980;2024-03-23T12:55:28;23.38;;;12.18;;
69981;SDS011;57319;56.274;43.980;2024-03-23T12:57:54;22.33;;;13.35;;
69981;SDS011;57319;56.274;43.980;2024-03-23T13:00:20;28.05;;;13.82;;
69981;SDS011;57319;56.274;43.980;2024-03-23T13:02:46;34.47;;;13.80;;
69981;SDS011;57319;56.274;43.980;2024-03-23T13:05:11;30.85;;;12.10;;
69981;SDS011;57319;56.274;43.980;2024-03-23T13:07:37;19.25;;;12.25;;
69981;SDS011;57319;56.274;43.980;2024-03-23T13:10:04;24.50;;;13.45;;
69981;SDS011;57319;56.274;43.980;2024-03-23T13:12:31;25.23;;;14.00;;
69981;SDS011;57319;56.274;43.980;2024-03-23T13:14:58;24.02;;;14.18;;
69981;SDS011;57319;56.274;43.980;2024-03-23T13:17:24;28.65;;;14.27;;
69981;SDS011;57319;56.274;43.980;2024-03-23T13:19:52;27.40;;;14.02;;
69981;SDS011;57319;56.274;43.980;2024-03-23T13:22:18;24.13;;;12.65;;
69981;SDS011;57319;56.274;43.980;2024-03-23T13:24:43;35.72;;;15.05;;
69981;SDS011;57319;56.274;43.980;2024-03-23T13:27:10;31.20;;;14.75;;
69981;SDS011;57319;56.274;43.980;2024-03-23T13:29:37;27.13;;;15.30;;
69981;SDS011;57319;56.274;43.980;2024-03-23T13:32:06;39.15;;;16.65;;
69981;SDS011;57319;56.274;43.980;2024-03-23T13:34:32;34.88;;;15.82;;
69981;SDS011;57319;56.274;43.980;2024-03-23T13:37:00;29.33;;;16.08;;
69981;SDS011;57319;56.274;43.980;2024-03-23T13:39:26;28.10;;;15.27;;
69981;SDS011;57319;56.274;43.980;2024-03-23T13:41:54;37.42;;;15.68;;
69981;SDS011;57319;56.274;43.980;2024-03-23T13:44:23;29.75;;;14.93;;
69981;SDS011;57319;56.274;43.980;2024-03-23T13:46:49;30.00;;;15.68;;
69981;SDS011;57319;56.274;43.980;2024-03-23T13:49:28;30.10;;;17.35;;
69981;SDS011;57319;56.274;43.980;2024-03-23T13:51:56;34.08;;;18.10;;
69981;SDS011;57319;56.274;43.980;2024-03-23T13:54:23;32.75;;;17.83;;
69981;SDS011;57319;56.274;43.980;2024-03-23T13:56:50;23.85;;;15.65;;
69981;SDS011;57319;56.274;43.980;2024-03-23T13:59:17;35.67;;;17.70;;
69981;SDS011;57319;56.274;43.980;2024-03-23T14:01:43;36.55;;;16.23;;
69981;SDS011;57319;56.274;43.980;2024-03-23T14:04:11;29.17;;;14.73;;
69981;SDS011;57319;56.274;43.980;2024-03-23T14:06:37;21.65;;;11.98;;
69981;SDS011;57319;56.274;43.980;2024-03-23T14:09:03;32.13;;;17.38;;
69981;SDS011;57319;56.274;43.980;2024-03-23T14:11:29;40.97;;;18.17;;
69981;SDS011;57319;56.274;43.980;2024-03-23T14:13:55;35.40;;;17.13;;
69981;SDS011;57319;56.274;43.980;2024-03-23T14:16:21;45.63;;;20.83;;
69981;SDS011;57319;56.274;43.980;2024-03-23T14:18:47;36.95;;;19.35;;
69981;SDS011;57319;56.274;43.980;2024-03-23T14:21:13;32.78;;;17.15;;
69981;SDS011;57319;56.274;43.980;2024-03-23T14:23:38;33.38;;;18.10;;
69981;SDS011;57319;56.274;43.980;2024-03-23T14:26:06;27.70;;;16.88;;
69981;SDS011;57319;56.274;43.980;2024-03-23T14:28:32;36.90;;;18.90;;
69981;SDS011;57319;56.274;43.980;2024-03-23T14:30:57;29.50;;;15.77;;
69981;SDS011;57319;56.274;43.980;2024-03-23T14:33:24;37.72;;;19.50;;
69981;SDS011;57319;56.274;43.980;2024-03-23T14:35:53;31.73;;;16.63;;
69981;SDS011;57319;56.274;43.980;2024-03-23T14:38:20;35.05;;;18.60;;
69981;SDS011;57319;56.274;43.980;2024-03-23T14:40:46;39.83;;;20.27;;
69981;SDS011;57319;56.274;43.980;2024-03-23T14:43:12;37.42;;;18.58;;
69981;SDS011;57319;56.274;43.980;2024-03-23T14:48:35;37.47;;;18.60;;
69981;SDS011;57319;56.274;43.980;2024-03-23T14:51:01;37.25;;;19.23;;
69981;SDS011;57319;56.274;43.980;2024-03-23T14:53:33;44.38;;;19.50;;
69981;SDS011;57319;56.274;43.980;2024-03-23T14:56:01;28.65;;;15.68;;
69981;SDS011;57319;56.274;43.980;2024-03-23T14:58:27;35.90;;;19.35;;
69981;SDS011;57319;56.274;43.980;2024-03-23T15:00:59;39.25;;;20.23;;
69981;SDS011;57319;56.274;43.980;2024-03-23T15:03:29;38.53;;;20.27;;
69981;SDS011;57319;56.274;43.980;2024-03-23T15:05:55;33.58;;;18.80;;
69981;SDS011;57319;56.274;43.980;2024-03-23T15:08:22;37.50;;;17.75;;
69981;SDS011;57319;56.274;43.980;2024-03-23T15:10:48;40.22;;;19.88;;
69981;SDS011;57319;56.274;43.980;2024-03-23T15:13:14;38.38;;;19.98;;
69981;SDS011;57319;56.274;43.980;2024-03-23T15:15:41;37.20;;;20.08;;
69981;SDS011;57319;56.274;43.980;2024-03-23T15:18:09;34.80;;;18.23;;
69981;SDS011;57319;56.274;43.980;2024-03-23T15:20:39;41.42;;;20.05;;
69981;SDS011;57319;56.274;43.980;2024-03-23T15:23:17;40.38;;;20.50;;
69981;SDS011;57319;56.274;43.980;2024-03-23T15:25:42;38.70;;;20.15;;
69981;SDS011;57319;56.274;43.980;2024-03-23T15:28:08;44.60;;;21.30;;